createdAt,value
2019-04-23T17:30:52.654Z,28.20
2019-04-23T17:42:08.995Z,28.10
2019-04-23T17:44:38.358Z,28.90
2019-04-23T17:47:13.386Z,29.00
2019-04-23T17:49:46.313Z,29.40
2019-04-23T17:52:21.988Z,29.00
2019-04-23T17:54:50.060Z,29.60
2019-04-23T17:57:24.578Z,29.50
2019-04-23T18:00:08.701Z,29.90
2019-04-23T18:05:04.100Z,30.30
2019-04-23T18:07:44.540Z,29.70
2019-04-23T18:10:18.291Z,30.00
2019-04-23T18:12:43.875Z,30.00
2019-04-23T18:15:06.122Z,30.20
2019-04-23T18:17:37.505Z,30.70
2019-04-23T18:28:13.230Z,31.50
2019-04-23T18:31:15.616Z,32.10
2019-04-23T18:34:08.050Z,32.60
2019-04-23T18:36:37.788Z,32.40
2019-04-23T18:39:23.908Z,32.90
2019-04-23T18:42:03.969Z,33.20
2019-04-23T18:44:30.527Z,33.60
2019-04-23T18:47:17.357Z,34.00
2019-04-23T18:49:35.420Z,34.00
2019-04-23T18:52:06.877Z,34.40
2019-04-23T18:54:37.046Z,34.60
2019-04-23T18:59:48.977Z,34.90
2019-04-23T19:08:21.250Z,35.70
2019-04-23T19:10:57.798Z,35.70
2019-04-23T19:13:39.884Z,35.60
2019-04-23T19:15:53.093Z,35.60
2019-04-23T19:18:36.067Z,35.60
2019-04-23T19:21:09.255Z,35.60
2019-04-23T19:23:47.640Z,35.60
2019-04-23T19:26:24.550Z,36.10
2019-04-23T19:28:55.528Z,36.30
2019-04-23T19:31:50.902Z,36.50
2019-04-23T19:34:21.207Z,36.60
2019-04-23T19:36:59.228Z,37.00
2019-04-23T19:39:26.433Z,37.20
2019-04-23T19:42:00.597Z,37.50
2019-04-23T19:44:32.760Z,37.30
2019-04-23T19:47:09.500Z,37.20
2019-04-23T19:49:38.998Z,37.30
2019-04-23T19:52:04.831Z,37.40
2019-04-23T19:57:19.585Z,37.60
2019-04-23T20:02:27.088Z,38.10
2019-04-23T20:07:32.937Z,38.20
2019-04-23T20:09:55.187Z,38.10
2019-04-23T20:12:40.778Z,38.40
2019-04-23T20:15:07.735Z,38.50
2019-04-23T20:17:48.830Z,38.60
2019-04-23T20:20:28.677Z,38.50
2019-04-23T20:22:55.543Z,38.80
2019-04-23T20:28:40.851Z,38.90
2019-04-23T20:34:24.422Z,39.40
2019-04-23T20:36:48.226Z,39.20
2019-04-23T20:39:17.250Z,39.20
2019-04-23T20:42:02.350Z,39.30
2019-04-23T20:47:06.707Z,39.20
2019-04-23T20:49:42.283Z,39.30
2019-04-23T20:52:04.662Z,39.50
2019-04-23T20:54:49.303Z,39.70
2019-04-23T21:05:32.976Z,39.90
2019-04-23T21:08:33.265Z,40.00
2019-04-23T21:13:43.390Z,40.10
2019-04-23T21:16:15.423Z,40.20
2019-04-23T21:18:39.472Z,40.20
2019-04-23T21:21:22.277Z,40.70
2019-04-23T21:23:53.727Z,41.10
2019-04-23T21:26:30.725Z,42.20
2019-04-23T21:29:03.943Z,43.30
2019-04-23T21:32:06.620Z,44.10
2019-04-23T21:41:17.541Z,44.60
2019-04-23T21:44:00.566Z,45.30
2019-04-23T21:46:14.548Z,46.10
2019-04-23T21:51:56.483Z,46.50
2019-04-23T21:54:14.933Z,47.00
2019-04-23T21:59:23.053Z,47.50
2019-04-23T22:01:58.918Z,47.80
2019-04-23T22:04:39.980Z,48.70
2019-04-23T22:07:25.538Z,48.20
2019-04-23T22:14:50.823Z,49.50
2019-04-23T22:17:25.958Z,49.60
2019-04-23T22:20:03.472Z,50.00
2019-04-23T22:22:41.961Z,49.70
2019-04-23T22:24:59.091Z,50.10
2019-04-23T22:27:32.608Z,50.60
2019-04-23T22:30:04.177Z,50.90
2019-04-23T22:32:47.749Z,50.80
2019-04-23T22:35:10.522Z,50.80
2019-04-23T22:37:48.321Z,50.80
2019-04-23T22:40:11.998Z,50.80
2019-04-23T22:43:14.957Z,50.80
2019-04-23T22:45:27.071Z,51.00
2019-04-23T22:53:09.102Z,51.50
2019-04-23T22:55:40.386Z,51.60
2019-04-23T23:03:51.177Z,52.50
2019-04-23T23:06:20.230Z,53.00
2019-04-23T23:09:02.654Z,53.20
2019-04-23T23:11:27.875Z,53.50
2019-04-23T23:14:10.096Z,53.50
2019-04-23T23:16:30.344Z,53.30
2019-04-23T23:19:07.459Z,53.20
2019-04-23T23:21:30.737Z,53.40
2019-04-23T23:24:07.519Z,53.50
2019-04-23T23:26:54.511Z,53.60
2019-04-23T23:29:02.279Z,53.50
2019-04-23T23:31:48.795Z,53.50
2019-04-23T23:34:06.802Z,53.80
2019-04-23T23:36:47.609Z,54.00
2019-04-23T23:41:48.995Z,54.30
2019-04-23T23:44:35.234Z,54.30
2019-04-23T23:49:27.960Z,54.80
2019-04-23T23:51:58.317Z,55.20
2019-04-23T23:54:27.497Z,55.20
2019-04-23T23:57:11.193Z,55.10
